sensor_id;sensor_type;location;lat;lon;timestamp;pressure;altitude;pressure_sealevel;temperature;humidity
62725;BME280;49026;52.600;4.694;2023-05-18T00:02:21;102961.78;;;4.32;55.73
62725;BME280;49026;52.600;4.694;2023-05-18T00:04:47;102966.94;;;4.30;55.35
62725;BME280;49026;52.600;4.694;2023-05-18T00:07:15;102966.97;;;4.32;55.55
62725;BME280;49026;52.600;4.694;2023-05-18T00:09:40;102968.75;;;4.33;55.64
62725;BME280;49026;52.600;4.694;2023-05-18T00:12:06;102961.81;;;4.33;56.04
62725;BME280;49026;52.600;4.694;2023-05-18T00:14:33;102971.34;;;4.33;55.40
62725;BME280;49026;52.600;4.694;2023-05-18T00:17:01;102959.13;;;4.30;55.25
62725;BME280;49026;52.600;4.694;2023-05-18T00:19:29;102966.03;;;4.28;55.87
62725;BME280;49026;52.600;4.694;2023-05-18T00:21:55;102966.03;;;4.28;55.79
62725;BME280;49026;52.600;4.694;2023-05-18T00:24:21;102963.44;;;4.28;55.94
62725;BME280;49026;52.600;4.694;2023-05-18T00:26:47;102964.28;;;4.27;56.00
62725;BME280;49026;52.600;4.694;2023-05-18T00:29:13;102965.19;;;4.29;55.92
62725;BME280;49026;52.600;4.694;2023-05-18T00:31:39;102969.47;;;4.27;56.09
62725;BME280;49026;52.600;4.694;2023-05-18T00:34:05;102959.06;;;4.27;56.01
62725;BME280;49026;52.600;4.694;2023-05-18T00:36:31;102967.75;;;4.26;56.31
62725;BME280;49026;52.600;4.694;2023-05-18T00:38:57;102965.97;;;4.25;56.32
62725;BME280;49026;52.600;4.694;2023-05-18T00:41:23;102971.16;;;4.23;55.79
62725;BME280;49026;52.600;4.694;2023-05-18T00:43:50;102971.09;;;4.20;56.19
62725;BME280;49026;52.600;4.694;2023-05-18T00:46:15;102972.81;;;4.20;56.39
62725;BME280;49026;52.600;4.694;2023-05-18T00:48:41;102971.09;;;4.20;56.41
62725;BME280;49026;52.600;4.694;2023-05-18T00:51:06;102964.16;;;4.21;56.41
62725;BME280;49026;52.600;4.694;2023-05-18T00:53:34;102972.88;;;4.23;56.47
62725;BME280;49026;52.600;4.694;2023-05-18T00:56:00;102968.47;;;4.20;56.51
62725;BME280;49026;52.600;4.694;2023-05-18T00:58:25;102962.41;;;4.20;56.41
62725;BME280;49026;52.600;4.694;2023-05-18T01:00:52;102960.63;;;4.19;57.06
62725;BME280;49026;52.600;4.694;2023-05-18T01:03:17;102958.91;;;4.18;56.49
62725;BME280;49026;52.600;4.694;2023-05-18T01:05:45;102958.94;;;4.21;56.57
62725;BME280;49026;52.600;4.694;2023-05-18T01:08:17;102962.50;;;4.24;56.62
62725;BME280;49026;52.600;4.694;2023-05-18T01:10:42;102967.75;;;4.27;56.72
62725;BME280;49026;52.600;4.694;2023-05-18T01:13:14;102972.16;;;4.30;57.11
62725;BME280;49026;52.600;4.694;2023-05-18T01:15:45;102965.22;;;4.31;57.14
62725;BME280;49026;52.600;4.694;2023-05-18T01:18:22;102962.59;;;4.31;57.02
62725;BME280;49026;52.600;4.694;2023-05-18T01:21:31;102961.81;;;4.33;57.16
62725;BME280;49026;52.600;4.694;2023-05-18T01:24:15;102957.44;;;4.32;56.52
62725;BME280;49026;52.600;4.694;2023-05-18T01:26:46;102966.09;;;4.31;57.06
62725;BME280;49026;52.600;4.694;2023-05-18T01:29:16;102969.56;;;4.30;57.07
62725;BME280;49026;52.600;4.694;2023-05-18T01:31:45;102967.81;;;4.31;57.51
62725;BME280;49026;52.600;4.694;2023-05-18T01:34:10;102963.50;;;4.31;57.15
62725;BME280;49026;52.600;4.694;2023-05-18T01:36:36;102968.75;;;4.33;57.97
62725;BME280;49026;52.600;4.694;2023-05-18T01:39:01;102960.94;;;4.34;57.85
62725;BME280;49026;52.600;4.694;2023-05-18T01:41:28;102966.19;;;4.36;57.49
62725;BME280;49026;52.600;4.694;2023-05-18T01:44:02;102968.81;;;4.37;57.56
62725;BME280;49026;52.600;4.694;2023-05-18T01:46:45;102967.09;;;4.38;57.44
62725;BME280;49026;52.600;4.694;2023-05-18T01:51:57;102964.53;;;4.39;57.68
62725;BME280;49026;52.600;4.694;2023-05-18T01:54:29;102971.41;;;4.37;57.37
62725;BME280;49026;52.600;4.694;2023-05-18T01:56:57;102974.94;;;4.39;57.36
62725;BME280;49026;52.600;4.694;2023-05-18T01:59:23;102971.47;;;4.40;57.31
62725;BME280;49026;52.600;4.694;2023-05-18T02:01:49;102973.22;;;4.40;57.55
62725;BME280;49026;52.600;4.694;2023-05-18T02:04:14;102975.81;;;4.40;57.36
62725;BME280;49026;52.600;4.694;2023-05-18T02:06:40;102978.31;;;4.35;57.28
62725;BME280;49026;52.600;4.694;2023-05-18T02:09:07;102973.88;;;4.30;57.97
62725;BME280;49026;52.600;4.694;2023-05-18T02:11:33;102972.94;;;4.26;57.80
62725;BME280;49026;52.600;4.694;2023-05-18T02:14:00;102973.78;;;4.25;58.23
62725;BME280;49026;52.600;4.694;2023-05-18T02:16:28;102968.63;;;4.26;57.49
62725;BME280;49026;52.600;4.694;2023-05-18T02:18:53;102972.97;;;4.29;58.04
62725;BME280;49026;52.600;4.694;2023-05-18T02:21:18;102966.91;;;4.29;57.89
62725;BME280;49026;52.600;4.694;2023-05-18T02:23:44;102959.09;;;4.29;57.88
62725;BME280;49026;52.600;4.694;2023-05-18T02:26:11;102966.03;;;4.28;57.76
62725;BME280;49026;52.600;4.694;2023-05-18T02:28:44;102973.91;;;4.31;57.93
62725;BME280;49026;52.600;4.694;2023-05-18T02:31:10;102974.81;;;4.33;57.96
62725;BME280;49026;52.600;4.694;2023-05-18T02:33:36;102972.31;;;4.38;58.46
62725;BME280;49026;52.600;4.694;2023-05-18T02:36:09;102975.75;;;4.37;58.01
62725;BME280;49026;52.600;4.694;2023-05-18T02:38:36;102971.34;;;4.34;58.15
62725;BME280;49026;52.600;4.694;2023-05-18T02:41:01;102968.75;;;4.33;58.33
62725;BME280;49026;52.600;4.694;2023-05-18T02:43:27;102960.91;;;4.31;58.46
62725;BME280;49026;52.600;4.694;2023-05-18T02:45:52;102971.31;;;4.31;58.53
62725;BME280;49026;52.600;4.694;2023-05-18T02:48:17;102972.19;;;4.32;57.97
62725;BME280;49026;52.600;4.694;2023-05-18T02:50:42;102972.16;;;4.30;58.36
62725;BME280;49026;52.600;4.694;2023-05-18T02:53:10;102976.53;;;4.31;58.29
62725;BME280;49026;52.600;4.694;2023-05-18T02:55:35;102969.56;;;4.30;58.20
62725;BME280;49026;52.600;4.694;2023-05-18T02:58:01;102968.69;;;4.30;58.31
62725;BME280;49026;52.600;4.694;2023-05-18T03:00:26;102959.97;;;4.29;58.10
62725;BME280;49026;52.600;4.694;2023-05-18T03:02:54;102970.41;;;4.31;58.17
62725;BME280;49026;52.600;4.694;2023-05-18T03:05:24;102959.09;;;4.29;58.29
62725;BME280;49026;52.600;4.694;2023-05-18T03:07:52;102959.94;;;4.27;58.31
62725;BME280;49026;52.600;4.694;2023-05-18T03:10:19;102962.53;;;4.26;58.65
62725;BME280;49026;52.600;4.694;2023-05-18T03:12:44;102959.88;;;4.23;58.33
62725;BME280;49026;52.600;4.694;2023-05-18T03:15:12;102965.00;;;4.20;57.98
62725;BME280;49026;52.600;4.694;2023-05-18T03:17:38;102963.22;;;4.17;58.15
62725;BME280;49026;52.600;4.694;2023-05-18T03:20:06;102970.09;;;4.15;58.27
62725;BME280;49026;52.600;4.694;2023-05-18T03:22:31;102971.81;;;4.13;58.08
62725;BME280;49026;52.600;4.694;2023-05-18T03:24:57;102973.53;;;4.13;58.61
62725;BME280;49026;52.600;4.694;2023-05-18T03:27:22;102970.94;;;4.13;58.09
62725;BME280;49026;52.600;4.694;2023-05-18T03:29:53;102973.50;;;4.11;58.38
62725;BME280;49026;52.600;4.694;2023-05-18T03:32:18;102976.06;;;4.10;58.12
62725;BME280;49026;52.600;4.694;2023-05-18T03:34:46;102979.44;;;4.05;58.19
62725;BME280;49026;52.600;4.694;2023-05-18T03:37:16;102975.94;;;4.03;58.74
62725;BME280;49026;52.600;4.694;2023-05-18T03:39:43;102976.72;;;4.01;58.62
62725;BME280;49026;52.600;4.694;2023-05-18T03:42:11;102978.47;;;4.00;58.52
62725;BME280;49026;52.600;4.694;2023-05-18T03:44:39;102970.56;;;3.96;58.22
62725;BME280;49026;52.600;4.694;2023-05-18T03:47:06;102970.56;;;3.96;58.27
62725;BME280;49026;52.600;4.694;2023-05-18T03:49:34;102967.91;;;3.94;58.99
62725;BME280;49026;52.600;4.694;2023-05-18T03:51:59;102968.75;;;3.92;58.42
62725;BME280;49026;52.600;4.694;2023-05-18T03:54:27;102968.66;;;3.87;58.31
62725;BME280;49026;52.600;4.694;2023-05-18T03:56:54;102968.56;;;3.84;58.36
62725;BME280;49026;52.600;4.694;2023-05-18T03:59:20;102969.44;;;3.83;58.50
62725;BME280;49026;52.600;4.694;2023-05-18T04:01:45;102966.91;;;3.86;58.76
62725;BME280;49026;52.600;4.694;2023-05-18T04:04:10;102973.84;;;3.87;58.38
62725;BME280;49026;52.600;4.694;2023-05-18T04:06:43;102973.91;;;3.90;58.89
62725;BME280;49026;52.600;4.694;2023-05-18T04:09:17;102974.84;;;3.94;58.53
62725;BME280;49026;52.600;4.694;2023-05-18T04:11:43;102972.31;;;3.97;58.94
62725;BME280;49026;52.600;4.694;2023-05-18T04:14:10;102978.50;;;4.02;58.42
62725;BME280;49026;52.600;4.694;2023-05-18T04:16:38;102973.50;;;4.11;58.74
62725;BME280;49026;52.600;4.694;2023-05-18T04:19:04;102974.59;;;4.22;59.10
62725;BME280;49026;52.600;4.694;2023-05-18T04:21:30;102971.31;;;4.31;58.77
62725;BME280;49026;52.600;4.694;2023-05-18T04:24:00;102987.09;;;4.40;59.32
62725;BME280;49026;52.600;4.694;2023-05-18T04:26:32;102987.22;;;4.47;58.85
62725;BME280;49026;52.600;4.694;2023-05-18T04:28:58;102991.69;;;4.54;58.94
62725;BME280;49026;52.600;4.694;2023-05-18T04:31:25;102990.97;;;4.61;59.46
62725;BME280;49026;52.600;4.694;2023-05-18T04:33:51;102989.50;;;4.75;59.23
62725;BME280;49026;52.600;4.694;2023-05-18T04:36:17;102982.91;;;4.93;59.50
62725;BME280;49026;52.600;4.694;2023-05-18T04:38:44;102987.47;;;5.08;59.76
62725;BME280;49026;52.600;4.694;2023-05-18T04:41:10;102992.03;;;5.19;59.44
62725;BME280;49026;52.600;4.694;2023-05-18T04:43:37;102998.34;;;5.34;59.63
62725;BME280;49026;52.600;4.694;2023-05-18T04:46:05;102993.50;;;5.57;60.02
62725;BME280;49026;52.600;4.694;2023-05-18T04:48:31;103001.09;;;5.98;59.99
62725;BME280;49026;52.600;4.694;2023-05-18T04:50:58;102992.06;;;6.43;59.98
62725;BME280;49026;52.600;4.694;2023-05-18T04:53:23;102999.44;;;6.83;59.55
62725;BME280;49026;52.600;4.694;2023-05-18T04:55:54;102994.56;;;7.17;59.31
62725;BME280;49026;52.600;4.694;2023-05-18T04:58:20;102993.91;;;7.46;59.60
62725;BME280;49026;52.600;4.694;2023-05-18T05:00:46;102997.59;;;7.80;59.43
62725;BME280;49026;52.600;4.694;2023-05-18T05:03:11;102998.72;;;8.25;59.45
62725;BME280;49026;52.600;4.694;2023-05-18T05:05:36;102990.16;;;8.71;58.98
62725;BME280;49026;52.600;4.694;2023-05-18T05:08:01;102994.56;;;9.07;58.81
62725;BME280;49026;52.600;4.694;2023-05-18T05:10:28;102992.81;;;9.31;58.32
62725;BME280;49026;52.600;4.694;2023-05-18T05:12:54;102999.78;;;9.57;58.24
62725;BME280;49026;52.600;4.694;2023-05-18T05:15:19;103001.50;;;9.78;58.27
62725;BME280;49026;52.600;4.694;2023-05-18T05:17:47;103004.09;;;9.93;58.35
62725;BME280;49026;52.600;4.694;2023-05-18T05:20:13;103010.19;;;10.09;58.45
62725;BME280;49026;52.600;4.694;2023-05-18T05:22:39;103016.31;;;10.14;58.16
62725;BME280;49026;52.600;4.694;2023-05-18T05:25:05;103006.66;;;10.16;58.50
62725;BME280;49026;52.600;4.694;2023-05-18T05:27:30;103007.50;;;10.17;58.58
62725;BME280;49026;52.600;4.694;2023-05-18T05:29:56;103011.91;;;10.19;59.03
62725;BME280;49026;52.600;4.694;2023-05-18T05:32:21;103011.84;;;10.27;59.11
62725;BME280;49026;52.600;4.694;2023-05-18T05:34:46;103013.63;;;10.36;59.04
62725;BME280;49026;52.600;4.694;2023-05-18T05:37:14;103018.81;;;10.47;59.26
62725;BME280;49026;52.600;4.694;2023-05-18T05:39:40;103013.47;;;10.64;59.13
62725;BME280;49026;52.600;4.694;2023-05-18T05:42:08;103012.44;;;10.88;58.87
62725;BME280;49026;52.600;4.694;2023-05-18T05:44:33;103014.88;;;11.12;58.41
62725;BME280;49026;52.600;4.694;2023-05-18T05:46:59;103016.50;;;11.30;57.33
62725;BME280;49026;52.600;4.694;2023-05-18T05:49:26;103019.84;;;11.51;57.87
62725;BME280;49026;52.600;4.694;2023-05-18T05:51:54;103018.81;;;11.66;56.38
62725;BME280;49026;52.600;4.694;2023-05-18T05:54:19;103010.03;;;11.67;56.02
62725;BME280;49026;52.600;4.694;2023-05-18T05:56:45;103025.88;;;11.62;55.51
62725;BME280;49026;52.600;4.694;2023-05-18T05:59:10;103022.47;;;11.51;55.89
62725;BME280;49026;52.600;4.694;2023-05-18T06:01:35;103025.22;;;11.37;55.83
62725;BME280;49026;52.600;4.694;2023-05-18T06:04:01;103028.81;;;11.27;56.52
62725;BME280;49026;52.600;4.694;2023-05-18T06:06:28;103026.19;;;11.25;56.30
62725;BME280;49026;52.600;4.694;2023-05-18T06:08:53;103031.53;;;11.18;56.19
62725;BME280;49026;52.600;4.694;2023-05-18T06:11:19;103036.88;;;11.05;56.03
62725;BME280;49026;52.600;4.694;2023-05-18T06:13:45;103033.41;;;11.00;56.13
62725;BME280;49026;52.600;4.694;2023-05-18T06:16:10;103036.88;;;11.02;56.21
62725;BME280;49026;52.600;4.694;2023-05-18T06:18:35;103042.16;;;11.01;56.43
62725;BME280;49026;52.600;4.694;2023-05-18T06:21:00;103034.34;;;10.88;56.10
62725;BME280;49026;52.600;4.694;2023-05-18T06:23:26;103038.78;;;10.82;57.14
62725;BME280;49026;52.600;4.694;2023-05-18T06:25:52;103034.38;;;10.87;57.40
62725;BME280;49026;52.600;4.694;2023-05-18T06:28:17;103042.25;;;10.87;56.85
62725;BME280;49026;52.600;4.694;2023-05-18T06:30:43;103036.13;;;10.86;56.45
62725;BME280;49026;52.600;4.694;2023-05-18T06:33:09;103047.50;;;10.90;57.48
62725;BME280;49026;52.600;4.694;2023-05-18T06:35:34;103045.75;;;10.86;55.99
62725;BME280;49026;52.600;4.694;2023-05-18T06:37:59;103042.22;;;10.93;57.42
62725;BME280;49026;52.600;4.694;2023-05-18T06:40:28;103050.88;;;11.10;57.44
62725;BME280;49026;52.600;4.694;2023-05-18T06:42:55;103049.06;;;11.17;57.08
62725;BME280;49026;52.600;4.694;2023-05-18T06:45:20;103055.25;;;11.15;55.52
62725;BME280;49026;52.600;4.694;2023-05-18T06:47:46;103050.81;;;11.20;55.80
62725;BME280;49026;52.600;4.694;2023-05-18T06:50:11;103052.47;;;11.33;55.66
62725;BME280;49026;52.600;4.694;2023-05-18T06:52:37;103056.75;;;11.45;57.46
62725;BME280;49026;52.600;4.694;2023-05-18T06:55:02;103050.53;;;11.52;56.84
62725;BME280;49026;52.600;4.694;2023-05-18T06:57:28;103055.84;;;11.47;56.18
62725;BME280;49026;52.600;4.694;2023-05-18T06:59:53;103049.88;;;11.28;50.25
62725;BME280;49026;52.600;4.694;2023-05-18T07:02:19;103053.34;;;11.30;55.33
62725;BME280;49026;52.600;4.694;2023-05-18T07:04:46;103053.31;;;11.38;55.70
62725;BME280;49026;52.600;4.694;2023-05-18T07:07:14;103055.00;;;11.42;56.31
62725;BME280;49026;52.600;4.694;2023-05-18T07:09:40;103066.31;;;11.54;56.43
62725;BME280;49026;52.600;4.694;2023-05-18T07:12:09;103064.44;;;11.70;56.44
62725;BME280;49026;52.600;4.694;2023-05-18T07:14:34;103060.16;;;11.58;55.15
62725;BME280;49026;52.600;4.694;2023-05-18T07:17:03;103056.66;;;11.53;55.23
62725;BME280;49026;52.600;4.694;2023-05-18T07:19:28;103056.66;;;11.56;56.00
62725;BME280;49026;52.600;4.694;2023-05-18T07:21:54;103061.06;;;11.54;53.93
62725;BME280;49026;52.600;4.694;2023-05-18T07:24:20;103062.88;;;11.45;55.64
62725;BME280;49026;52.600;4.694;2023-05-18T07:26:46;103062.03;;;11.42;54.85
62725;BME280;49026;52.600;4.694;2023-05-18T07:29:13;103061.22;;;11.32;56.00
62725;BME280;49026;52.600;4.694;2023-05-18T07:31:41;103060.38;;;11.30;56.62
62725;BME280;49026;52.600;4.694;2023-05-18T07:34:09;103062.88;;;11.48;56.64
62725;BME280;49026;52.600;4.694;2023-05-18T07:36:37;103054.81;;;11.64;56.90
62725;BME280;49026;52.600;4.694;2023-05-18T07:39:02;103055.63;;;11.72;56.41
62725;BME280;49026;52.600;4.694;2023-05-18T07:41:27;103055.56;;;11.78;54.89
62725;BME280;49026;52.600;4.694;2023-05-18T07:43:53;103060.81;;;11.81;55.56
62725;BME280;49026;52.600;4.694;2023-05-18T07:46:20;103053.72;;;11.90;54.71
62725;BME280;49026;52.600;4.694;2023-05-18T07:48:48;103054.38;;;12.13;56.82
62725;BME280;49026;52.600;4.694;2023-05-18T07:51:15;103064.66;;;12.35;55.73
62725;BME280;49026;52.600;4.694;2023-05-18T07:53:43;103062.06;;;12.32;56.63
62725;BME280;49026;52.600;4.694;2023-05-18T07:56:10;103070.84;;;12.31;54.63
62725;BME280;49026;52.600;4.694;2023-05-18T07:58:35;103065.53;;;12.35;55.00
62725;BME280;49026;52.600;4.694;2023-05-18T08:01:03;103062.81;;;12.41;53.74
62725;BME280;49026;52.600;4.694;2023-05-18T08:03:28;103068.09;;;12.41;50.98
62725;BME280;49026;52.600;4.694;2023-05-18T08:05:54;103066.31;;;12.44;53.75
62725;BME280;49026;52.600;4.694;2023-05-18T08:08:21;103068.06;;;12.43;54.05
62725;BME280;49026;52.600;4.694;2023-05-18T08:10:47;103060.06;;;12.49;54.32
62725;BME280;49026;52.600;4.694;2023-05-18T08:13:12;103073.38;;;12.41;54.52
62725;BME280;49026;52.600;4.694;2023-05-18T08:15:38;103077.09;;;12.23;53.61
62725;BME280;49026;52.600;4.694;2023-05-18T08:18:05;103078.06;;;12.15;54.45
62725;BME280;49026;52.600;4.694;2023-05-18T08:20:30;103080.81;;;12.02;54.07
62725;BME280;49026;52.600;4.694;2023-05-18T08:22:57;103071.25;;;11.95;54.57
62725;BME280;49026;52.600;4.694;2023-05-18T08:25:23;103073.00;;;11.96;54.68
62725;BME280;49026;52.600;4.694;2023-05-18T08:27:49;103069.31;;;12.11;55.00
62725;BME280;49026;52.600;4.694;2023-05-18T08:30:14;103068.78;;;12.54;56.12
62725;BME280;49026;52.600;4.694;2023-05-18T08:32:40;103073.78;;;12.76;55.25
62725;BME280;49026;52.600;4.694;2023-05-18T08:35:06;103069.28;;;12.83;55.02
62725;BME280;49026;52.600;4.694;2023-05-18T08:37:32;103064.75;;;12.92;53.93
62725;BME280;49026;52.600;4.694;2023-05-18T08:40:00;103056.72;;;13.02;53.44
62725;BME280;49026;52.600;4.694;2023-05-18T08:42:35;103052.22;;;13.10;54.24
62725;BME280;49026;52.600;4.694;2023-05-18T08:45:11;103051.97;;;13.25;54.73
62725;BME280;49026;52.600;4.694;2023-05-18T08:47:38;103050.91;;;13.37;55.34
62725;BME280;49026;52.600;4.694;2023-05-18T08:50:04;103047.31;;;13.41;53.21
62725;BME280;49026;52.600;4.694;2023-05-18T08:52:34;103052.03;;;13.19;52.90
62725;BME280;49026;52.600;4.694;2023-05-18T08:55:04;103052.28;;;13.04;52.95
62725;BME280;49026;52.600;4.694;2023-05-18T08:57:31;103051.44;;;13.03;53.91
62725;BME280;49026;52.600;4.694;2023-05-18T09:00:02;103053.09;;;13.09;54.13
62725;BME280;49026;52.600;4.694;2023-05-18T09:02:28;103046.94;;;13.10;45.97
62725;BME280;49026;52.600;4.694;2023-05-18T09:04:57;103052.38;;;12.97;52.86
62725;BME280;49026;52.600;4.694;2023-05-18T09:07:23;103049.47;;;13.14;53.78
62725;BME280;49026;52.600;4.694;2023-05-18T09:09:49;103051.88;;;13.31;53.43
62725;BME280;49026;52.600;4.694;2023-05-18T09:12:15;103055.16;;;13.46;54.51
62725;BME280;49026;52.600;4.694;2023-05-18T09:14:45;103044.31;;;13.61;53.96
62725;BME280;49026;52.600;4.694;2023-05-18T09:17:12;103044.22;;;13.67;53.26
62725;BME280;49026;52.600;4.694;2023-05-18T09:19:38;103040.50;;;13.78;52.87
62725;BME280;49026;52.600;4.694;2023-05-18T09:22:06;103041.34;;;13.80;52.87
62725;BME280;49026;52.600;4.694;2023-05-18T09:24:32;103046.88;;;13.67;52.86
62725;BME280;49026;52.600;4.694;2023-05-18T09:26:58;103040.94;;;13.53;53.25
62725;BME280;49026;52.600;4.694;2023-05-18T09:29:23;103036.31;;;13.66;54.09
62725;BME280;49026;52.600;4.694;2023-05-18T09:31:48;103034.91;;;13.95;46.30
62725;BME280;49026;52.600;4.694;2023-05-18T09:34:14;103037.38;;;14.04;52.50
62725;BME280;49026;52.600;4.694;2023-05-18T09:36:40;103030.84;;;14.22;54.41
62725;BME280;49026;52.600;4.694;2023-05-18T09:39:08;103025.44;;;14.26;52.67
62725;BME280;49026;52.600;4.694;2023-05-18T09:41:36;103028.84;;;14.33;54.30
62725;BME280;49026;52.600;4.694;2023-05-18T09:44:02;103031.41;;;14.36;53.34
62725;BME280;49026;52.600;4.694;2023-05-18T09:46:42;103023.94;;;14.57;52.51
62725;BME280;49026;52.600;4.694;2023-05-18T09:49:07;103027.44;;;14.98;51.59
62725;BME280;49026;52.600;4.694;2023-05-18T09:51:37;103027.97;;;15.12;53.75
62725;BME280;49026;52.600;4.694;2023-05-18T09:54:03;103028.06;;;15.09;52.55
62725;BME280;49026;52.600;4.694;2023-05-18T09:56:34;103023.13;;;14.94;52.23
62725;BME280;49026;52.600;4.694;2023-05-18T09:59:10;103022.63;;;14.76;53.25
62725;BME280;49026;52.600;4.694;2023-05-18T10:01:36;103024.16;;;14.87;52.66
62725;BME280;49026;52.600;4.694;2023-05-18T10:04:03;103028.72;;;15.17;53.22
62725;BME280;49026;52.600;4.694;2023-05-18T10:06:29;103024.53;;;15.43;53.51
62725;BME280;49026;52.600;4.694;2023-05-18T10:09:00;103028.69;;;15.88;53.70
62725;BME280;49026;52.600;4.694;2023-05-18T10:11:32;103029.31;;;15.98;53.48
62725;BME280;49026;52.600;4.694;2023-05-18T10:13:59;103021.56;;;15.57;45.23
62725;BME280;49026;52.600;4.694;2023-05-18T10:16:30;103030.16;;;15.31;50.45
62725;BME280;49026;52.600;4.694;2023-05-18T10:18:57;103032.53;;;15.07;50.80
62725;BME280;49026;52.600;4.694;2023-05-18T10:21:29;103028.16;;;15.05;51.17
62725;BME280;49026;52.600;4.694;2023-05-18T10:23:55;103024.50;;;15.10;52.45
62725;BME280;49026;52.600;4.694;2023-05-18T10:26:22;103018.84;;;15.24;50.22
62725;BME280;49026;52.600;4.694;2023-05-18T10:28:52;103020.00;;;15.48;52.17
62725;BME280;49026;52.600;4.694;2023-05-18T10:31:22;103023.44;;;15.86;53.41
62725;BME280;49026;52.600;4.694;2023-05-18T10:33:51;103024.09;;;15.95;50.81
62725;BME280;49026;52.600;4.694;2023-05-18T10:36:20;103020.44;;;15.66;51.41
62725;BME280;49026;52.600;4.694;2023-05-18T10:38:49;103024.63;;;15.40;51.27
62725;BME280;49026;52.600;4.694;2023-05-18T10:41:17;103024.94;;;15.28;51.03
62725;BME280;49026;52.600;4.694;2023-05-18T10:43:44;103023.03;;;15.33;51.97
62725;BME280;49026;52.600;4.694;2023-05-18T10:46:11;103023.00;;;15.34;51.54
62725;BME280;49026;52.600;4.694;2023-05-18T10:48:38;103014.16;;;15.35;51.68
62725;BME280;49026;52.600;4.694;2023-05-18T10:51:07;103011.97;;;15.51;44.84
62725;BME280;49026;52.600;4.694;2023-05-18T10:53:33;103012.44;;;15.33;49.99
62725;BME280;49026;52.600;4.694;2023-05-18T10:56:00;103008.34;;;15.21;50.65
62725;BME280;49026;52.600;4.694;2023-05-18T10:58:28;103001.19;;;15.25;51.65
62725;BME280;49026;52.600;4.694;2023-05-18T11:00:56;103001.34;;;15.18;51.27
62725;BME280;49026;52.600;4.694;2023-05-18T11:03:27;103003.06;;;15.19;50.34
62725;BME280;49026;52.600;4.694;2023-05-18T11:06:07;103001.22;;;15.23;51.45
62725;BME280;49026;52.600;4.694;2023-05-18T11:08:41;103007.81;;;15.41;45.61
62725;BME280;49026;52.600;4.694;2023-05-18T11:11:08;102999.88;;;15.76;50.25
62725;BME280;49026;52.600;4.694;2023-05-18T11:13:37;102995.13;;;16.18;53.63
62725;BME280;49026;52.600;4.694;2023-05-18T11:16:09;102993.50;;;16.44;52.02
62725;BME280;49026;52.600;4.694;2023-05-18T11:18:40;102991.94;;;16.65;52.60
62725;BME280;49026;52.600;4.694;2023-05-18T11:24:31;102987.94;;;16.22;45.74
62725;BME280;49026;52.600;4.694;2023-05-18T11:27:14;102992.50;;;16.46;51.30
62725;BME280;49026;52.600;4.694;2023-05-18T11:29:41;102993.28;;;16.78;53.11
62725;BME280;49026;52.600;4.694;2023-05-18T11:32:22;102992.66;;;17.25;51.53
62725;BME280;49026;52.600;4.694;2023-05-18T11:34:51;102985.84;;;17.43;52.34
62725;BME280;49026;52.600;4.694;2023-05-18T11:40:03;102979.22;;;17.55;49.42
62725;BME280;49026;52.600;4.694;2023-05-18T11:42:33;102981.44;;;17.42;48.79
62725;BME280;49026;52.600;4.694;2023-05-18T11:45:08;102967.94;;;17.73;50.51
62725;BME280;49026;52.600;4.694;2023-05-18T11:47:34;102976.88;;;18.20;48.72
62725;BME280;49026;52.600;4.694;2023-05-18T11:50:01;102962.47;;;18.47;38.15
62725;BME280;49026;52.600;4.694;2023-05-18T11:52:26;102969.09;;;18.37;48.22
62725;BME280;49026;52.600;4.694;2023-05-18T11:54:54;102960.53;;;18.29;39.93
62725;BME280;49026;52.600;4.694;2023-05-18T11:57:28;102965.19;;;18.24;48.35
62725;BME280;49026;52.600;4.694;2023-05-18T12:00:05;102955.34;;;18.26;44.85
62725;BME280;49026;52.600;4.694;2023-05-18T12:02:37;102963.69;;;17.93;47.64
62725;BME280;49026;52.600;4.694;2023-05-18T12:05:09;102955.06;;;17.37;46.38
62725;BME280;49026;52.600;4.694;2023-05-18T12:07:35;102953.31;;;16.84;47.41
62725;BME280;49026;52.600;4.694;2023-05-18T12:10:07;102957.53;;;16.62;48.26
62725;BME280;49026;52.600;4.694;2023-05-18T12:12:33;102951.13;;;16.41;47.42
62725;BME280;49026;52.600;4.694;2023-05-18T12:15:00;102955.50;;;16.12;48.27
62725;BME280;49026;52.600;4.694;2023-05-18T12:17:46;102957.16;;;15.86;41.76
62725;BME280;49026;52.600;4.694;2023-05-18T12:20:12;102961.63;;;15.84;48.00
62725;BME280;49026;52.600;4.694;2023-05-18T12:22:58;102952.66;;;15.88;45.45
62725;BME280;49026;52.600;4.694;2023-05-18T12:25:25;102963.56;;;15.79;48.24
62725;BME280;49026;52.600;4.694;2023-05-18T12:27:53;102954.59;;;15.83;48.15
62725;BME280;49026;52.600;4.694;2023-05-18T12:30:24;102954.91;;;15.71;48.92
62725;BME280;49026;52.600;4.694;2023-05-18T12:32:52;102955.16;;;15.62;47.86
62725;BME280;49026;52.600;4.694;2023-05-18T12:35:24;102949.13;;;15.56;48.20
62725;BME280;49026;52.600;4.694;2023-05-18T12:37:53;102946.06;;;15.72;47.53
62725;BME280;49026;52.600;4.694;2023-05-18T12:40:27;102944.97;;;15.81;45.73
62725;BME280;49026;52.600;4.694;2023-05-18T12:43:00;102957.88;;;15.91;47.87
62725;BME280;49026;52.600;4.694;2023-05-18T12:45:32;102950.41;;;16.06;48.17
62725;BME280;49026;52.600;4.694;2023-05-18T12:48:09;102948.31;;;16.45;49.44
62725;BME280;49026;52.600;4.694;2023-05-18T12:50:44;102947.72;;;16.92;49.39
62725;BME280;49026;52.600;4.694;2023-05-18T12:53:10;102948.84;;;17.37;48.20
62725;BME280;49026;52.600;4.694;2023-05-18T12:55:35;102947.66;;;17.71;49.28
62725;BME280;49026;52.600;4.694;2023-05-18T12:58:10;102936.59;;;17.82;48.88
62725;BME280;49026;52.600;4.694;2023-05-18T13:00:42;102939.16;;;17.85;47.18
62725;BME280;49026;52.600;4.694;2023-05-18T13:03:09;102935.47;;;17.89;47.09
62725;BME280;49026;52.600;4.694;2023-05-18T13:05:36;102931.50;;;17.75;46.06
62725;BME280;49026;52.600;4.694;2023-05-18T13:08:04;102941.56;;;17.67;47.36